sensor_id;sensor_type;location;lat;lon;timestamp;pressure;altitude;pressure_sealevel;temperature;humidity
26043;BME280;13818;52.156;5.382;2023-02-26T00:00:31;101635.69;;;2.47;100.00
26043;BME280;13818;52.156;5.382;2023-02-26T00:02:58;101647.97;;;2.51;100.00
26043;BME280;13818;52.156;5.382;2023-02-26T00:05:27;101646.25;;;2.59;100.00
26043;BME280;13818;52.156;5.382;2023-02-26T00:07:53;101647.97;;;2.57;100.00
26043;BME280;13818;52.156;5.382;2023-02-26T00:10:19;101645.34;;;2.58;100.00
26043;BME280;13818;52.156;5.382;2023-02-26T00:12:46;101656.75;;;2.60;100.00
26043;BME280;13818;52.156;5.382;2023-02-26T00:15:14;101660.25;;;2.59;100.00
26043;BME280;13818;52.156;5.382;2023-02-26T00:17:43;101662.03;;;2.65;100.00
26043;BME280;13818;52.156;5.382;2023-02-26T00:20:11;101673.44;;;2.73;100.00
26043;BME280;13818;52.156;5.382;2023-02-26T00:22:39;101677.81;;;2.79;100.00
26043;BME280;13818;52.156;5.382;2023-02-26T00:25:07;101679.56;;;2.89;100.00
26043;BME280;13818;52.156;5.382;2023-02-26T00:27:33;101690.09;;;2.96;100.00
26043;BME280;13818;52.156;5.382;2023-02-26T00:30:00;101693.63;;;2.98;100.00
26043;BME280;13818;52.156;5.382;2023-02-26T00:32:28;101693.63;;;2.91;100.00
26043;BME280;13818;52.156;5.382;2023-02-26T00:34:55;101704.16;;;2.91;100.00
26043;BME280;13818;52.156;5.382;2023-02-26T00:37:43;101701.50;;;2.90;100.00
26043;BME280;13818;52.156;5.382;2023-02-26T00:40:19;101710.28;;;2.87;100.00
26043;BME280;13818;52.156;5.382;2023-02-26T00:42:46;101721.72;;;2.82;100.00
26043;BME280;13818;52.156;5.382;2023-02-26T00:45:14;101716.41;;;2.79;100.00
26043;BME280;13818;52.156;5.382;2023-02-26T00:47:46;101715.56;;;2.89;100.00
26043;BME280;13818;52.156;5.382;2023-02-26T00:50:17;101724.34;;;2.88;100.00
26043;BME280;13818;52.156;5.382;2023-02-26T00:53:02;101717.31;;;2.88;100.00
26043;BME280;13818;52.156;5.382;2023-02-26T00:55:29;101719.06;;;2.83;100.00
26043;BME280;13818;52.156;5.382;2023-02-26T00:57:56;101721.69;;;2.85;100.00
26043;BME280;13818;52.156;5.382;2023-02-26T01:00:23;101724.34;;;2.82;100.00
26043;BME280;13818;52.156;5.382;2023-02-26T01:02:50;101726.09;;;2.76;100.00
26043;BME280;13818;52.156;5.382;2023-02-26T01:05:17;101718.19;;;2.80;100.00
26043;BME280;13818;52.156;5.382;2023-02-26T01:07:53;101725.22;;;2.70;100.00
26043;BME280;13818;52.156;5.382;2023-02-26T01:10:23;101721.72;;;2.72;100.00
26043;BME280;13818;52.156;5.382;2023-02-26T01:12:50;101724.34;;;2.66;100.00
26043;BME280;13818;52.156;5.382;2023-02-26T01:15:18;101724.34;;;2.68;100.00
26043;BME280;13818;52.156;5.382;2023-02-26T01:17:48;101724.31;;;2.71;100.00
26043;BME280;13818;52.156;5.382;2023-02-26T01:20:18;101733.09;;;2.74;100.00
26043;BME280;13818;52.156;5.382;2023-02-26T01:22:49;101733.09;;;2.62;100.00
26043;BME280;13818;52.156;5.382;2023-02-26T01:25:21;101736.59;;;2.67;100.00
26043;BME280;13818;52.156;5.382;2023-02-26T01:27:50;101738.38;;;2.70;100.00
26043;BME280;13818;52.156;5.382;2023-02-26T01:30:18;101733.09;;;2.56;100.00
26043;BME280;13818;52.156;5.382;2023-02-26T01:32:47;101739.25;;;2.64;100.00
26043;BME280;13818;52.156;5.382;2023-02-26T01:35:22;101739.25;;;2.61;100.00
26043;BME280;13818;52.156;5.382;2023-02-26T01:37:56;101738.38;;;2.50;100.00
26043;BME280;13818;52.156;5.382;2023-02-26T01:43:32;101736.56;;;2.47;100.00
26043;BME280;13818;52.156;5.382;2023-02-26T01:46:05;101753.25;;;2.51;100.00
26043;BME280;13818;52.156;5.382;2023-02-26T01:48:47;101760.28;;;2.50;100.00
26043;BME280;13818;52.156;5.382;2023-02-26T01:51:14;101764.66;;;2.48;100.00
26043;BME280;13818;52.156;5.382;2023-02-26T01:53:40;101750.63;;;2.48;100.00
26043;BME280;13818;52.156;5.382;2023-02-26T01:56:10;101764.66;;;2.47;100.00
26043;BME280;13818;52.156;5.382;2023-02-26T01:58:40;101755.00;;;2.46;100.00
26043;BME280;13818;52.156;5.382;2023-02-26T02:01:07;101755.88;;;2.38;100.00
26043;BME280;13818;52.156;5.382;2023-02-26T02:03:36;101767.28;;;2.48;100.00
26043;BME280;13818;52.156;5.382;2023-02-26T02:06:05;101757.63;;;2.46;100.00
26043;BME280;13818;52.156;5.382;2023-02-26T02:08:34;101763.75;;;2.44;100.00
26043;BME280;13818;52.156;5.382;2023-02-26T02:11:02;101768.16;;;2.36;100.00
26043;BME280;13818;52.156;5.382;2023-02-26T02:13:53;101771.66;;;2.38;100.00
26043;BME280;13818;52.156;5.382;2023-02-26T02:16:30;101772.53;;;2.37;100.00
26043;BME280;13818;52.156;5.382;2023-02-26T02:19:07;101776.03;;;2.28;100.00
26043;BME280;13818;52.156;5.382;2023-02-26T02:22:10;101775.16;;;2.33;100.00
26043;BME280;13818;52.156;5.382;2023-02-26T02:24:45;101778.66;;;2.30;100.00
26043;BME280;13818;52.156;5.382;2023-02-26T02:27:18;101787.44;;;2.34;100.00
26043;BME280;13818;52.156;5.382;2023-02-26T02:30:02;101784.78;;;2.31;100.00
26043;BME280;13818;52.156;5.382;2023-02-26T02:32:35;101791.81;;;2.30;100.00
26043;BME280;13818;52.156;5.382;2023-02-26T02:35:10;101796.19;;;2.31;100.00
26043;BME280;13818;52.156;5.382;2023-02-26T02:37:41;101804.94;;;2.21;100.00
26043;BME280;13818;52.156;5.382;2023-02-26T02:40:13;101801.41;;;2.22;100.00
26043;BME280;13818;52.156;5.382;2023-02-26T02:42:43;101796.16;;;2.16;100.00
26043;BME280;13818;52.156;5.382;2023-02-26T02:45:16;101810.16;;;2.19;100.00
26043;BME280;13818;52.156;5.382;2023-02-26T02:47:47;101804.00;;;2.11;100.00
26043;BME280;13818;52.156;5.382;2023-02-26T02:50:19;101814.56;;;2.17;100.00
26043;BME280;13818;52.156;5.382;2023-02-26T02:52:51;101822.47;;;2.16;100.00
26043;BME280;13818;52.156;5.382;2023-02-26T02:55:20;101814.53;;;2.11;100.00
26043;BME280;13818;52.156;5.382;2023-02-26T02:57:51;101809.28;;;2.09;100.00
26043;BME280;13818;52.156;5.382;2023-02-26T03:00:20;101815.38;;;2.05;100.00
26043;BME280;13818;52.156;5.382;2023-02-26T03:02:52;101823.22;;;1.98;100.00
26043;BME280;13818;52.156;5.382;2023-02-26T03:05:22;101832.00;;;2.00;100.00
26043;BME280;13818;52.156;5.382;2023-02-26T03:07:52;101822.34;;;2.02;100.00
26043;BME280;13818;52.156;5.382;2023-02-26T03:10:19;101832.00;;;2.00;100.00
26043;BME280;13818;52.156;5.382;2023-02-26T03:12:46;101832.00;;;2.00;100.00
26043;BME280;13818;52.156;5.382;2023-02-26T03:15:13;101831.94;;;1.89;100.00
26043;BME280;13818;52.156;5.382;2023-02-26T03:17:47;101833.69;;;1.91;100.00
26043;BME280;13818;52.156;5.382;2023-02-26T03:20:24;101842.47;;;1.89;100.00
26043;BME280;13818;52.156;5.382;2023-02-26T03:23:00;101840.72;;;1.94;100.00
26043;BME280;13818;52.156;5.382;2023-02-26T03:25:36;101841.59;;;1.90;100.00
26043;BME280;13818;52.156;5.382;2023-02-26T03:28:08;101838.97;;;1.88;100.00
26043;BME280;13818;52.156;5.382;2023-02-26T03:30:38;101848.63;;;1.89;100.00
26043;BME280;13818;52.156;5.382;2023-02-26T03:33:12;101843.28;;;1.78;100.00
26043;BME280;13818;52.156;5.382;2023-02-26T03:35:48;101849.41;;;1.74;100.00
26043;BME280;13818;52.156;5.382;2023-02-26T03:38:24;101844.13;;;1.77;100.00
26043;BME280;13818;52.156;5.382;2023-02-26T03:40:57;101864.31;;;1.78;100.00
26043;BME280;13818;52.156;5.382;2023-02-26T03:43:36;101851.13;;;1.72;100.00
26043;BME280;13818;52.156;5.382;2023-02-26T03:46:08;101859.88;;;1.71;100.00
26043;BME280;13818;52.156;5.382;2023-02-26T03:48:37;101864.31;;;1.78;100.00
26043;BME280;13818;52.156;5.382;2023-02-26T03:51:09;101860.72;;;1.67;100.00
26043;BME280;13818;52.156;5.382;2023-02-26T03:53:39;101875.63;;;1.70;100.00
26043;BME280;13818;52.156;5.382;2023-02-26T03:56:11;101874.78;;;1.69;100.00
26043;BME280;13818;52.156;5.382;2023-02-26T03:58:39;101876.50;;;1.64;100.00
26043;BME280;13818;52.156;5.382;2023-02-26T04:01:08;101873.84;;;1.64;100.00
26043;BME280;13818;52.156;5.382;2023-02-26T04:03:40;101878.22;;;1.62;100.00
26043;BME280;13818;52.156;5.382;2023-02-26T04:06:10;101875.59;;;1.62;100.00
26043;BME280;13818;52.156;5.382;2023-02-26T04:08:38;101884.31;;;1.58;100.00
26043;BME280;13818;52.156;5.382;2023-02-26T04:11:08;101879.97;;;1.61;100.00
26043;BME280;13818;52.156;5.382;2023-02-26T04:13:35;101886.09;;;1.62;100.00
26043;BME280;13818;52.156;5.382;2023-02-26T04:16:03;101894.78;;;1.52;100.00
26043;BME280;13818;52.156;5.382;2023-02-26T04:18:30;101889.53;;;1.50;100.00
26043;BME280;13818;52.156;5.382;2023-02-26T04:20:57;101900.94;;;1.55;100.00
26043;BME280;13818;52.156;5.382;2023-02-26T04:23:24;101905.28;;;1.52;100.00
26043;BME280;13818;52.156;5.382;2023-02-26T04:25:51;101909.63;;;1.48;100.00
26043;BME280;13818;52.156;5.382;2023-02-26T04:28:18;101913.16;;;1.50;100.00
26043;BME280;13818;52.156;5.382;2023-02-26T04:30:44;101910.47;;;1.44;100.00
26043;BME280;13818;52.156;5.382;2023-02-26T04:33:11;101910.47;;;1.44;100.00
26043;BME280;13818;52.156;5.382;2023-02-26T04:35:39;101912.16;;;1.37;100.00
26043;BME280;13818;52.156;5.382;2023-02-26T04:38:05;101913.13;;;1.45;100.00
26043;BME280;13818;52.156;5.382;2023-02-26T04:40:33;101926.25;;;1.44;100.00
26043;BME280;13818;52.156;5.382;2023-02-26T04:43:00;101929.75;;;1.46;100.00
26043;BME280;13818;52.156;5.382;2023-02-26T04:45:27;101931.44;;;1.36;100.00
26043;BME280;13818;52.156;5.382;2023-02-26T04:47:53;101934.09;;;1.41;100.00
26043;BME280;13818;52.156;5.382;2023-02-26T04:50:20;101929.69;;;1.38;100.00
26043;BME280;13818;52.156;5.382;2023-02-26T04:52:46;101939.34;;;1.38;100.00
26043;BME280;13818;52.156;5.382;2023-02-26T04:55:13;101938.47;;;1.39;100.00
26043;BME280;13818;52.156;5.382;2023-02-26T04:57:41;101940.19;;;1.37;100.00
26043;BME280;13818;52.156;5.382;2023-02-26T05:00:11;101951.56;;;1.34;100.00
26043;BME280;13818;52.156;5.382;2023-02-26T05:02:38;101952.41;;;1.35;100.00
26043;BME280;13818;52.156;5.382;2023-02-26T05:05:04;101957.72;;;1.39;100.00
26043;BME280;13818;52.156;5.382;2023-02-26T05:07:31;101962.00;;;1.28;100.00
26043;BME280;13818;52.156;5.382;2023-02-26T05:09:58;101968.16;;;1.33;100.00
26043;BME280;13818;52.156;5.382;2023-02-26T05:12:24;101966.41;;;1.30;100.00
26043;BME280;13818;52.156;5.382;2023-02-26T05:14:52;101971.72;;;1.37;100.00
26043;BME280;13818;52.156;5.382;2023-02-26T05:17:19;101983.09;;;1.37;100.00
26043;BME280;13818;52.156;5.382;2023-02-26T05:19:46;101975.25;;;1.40;100.00
26043;BME280;13818;52.156;5.382;2023-02-26T05:22:13;101977.84;;;1.37;100.00
26043;BME280;13818;52.156;5.382;2023-02-26T05:24:40;101994.44;;;1.35;100.00
26043;BME280;13818;52.156;5.382;2023-02-26T05:27:06;101983.00;;;1.28;100.00
26043;BME280;13818;52.156;5.382;2023-02-26T05:29:33;101994.38;;;1.25;100.00
26043;BME280;13818;52.156;5.382;2023-02-26T05:32:02;101987.41;;;1.29;100.00
26043;BME280;13818;52.156;5.382;2023-02-26T05:34:28;101989.97;;;1.26;100.00
26043;BME280;13818;52.156;5.382;2023-02-26T05:36:55;101999.69;;;1.30;100.00
26043;BME280;13818;52.156;5.382;2023-02-26T05:39:21;102004.88;;;1.24;100.00
26043;BME280;13818;52.156;5.382;2023-02-26T05:41:47;101998.69;;;1.19;100.00
26043;BME280;13818;52.156;5.382;2023-02-26T05:44:16;102006.53;;;1.17;100.00
26043;BME280;13818;52.156;5.382;2023-02-26T05:46:42;101999.47;;;1.11;100.00
26043;BME280;13818;52.156;5.382;2023-02-26T05:49:10;102006.50;;;1.16;100.00
26043;BME280;13818;52.156;5.382;2023-02-26T05:51:37;102018.72;;;1.12;100.00
26043;BME280;13818;52.156;5.382;2023-02-26T05:54:04;102019.63;;;1.14;100.00
26043;BME280;13818;52.156;5.382;2023-02-26T05:56:30;102032.75;;;1.14;100.00
26043;BME280;13818;52.156;5.382;2023-02-26T05:58:57;102027.50;;;1.14;100.00
26043;BME280;13818;52.156;5.382;2023-02-26T06:01:23;102038.84;;;1.10;100.00
26043;BME280;13818;52.156;5.382;2023-02-26T06:03:50;102036.25;;;1.14;100.00
26043;BME280;13818;52.156;5.382;2023-02-26T06:06:18;102037.09;;;1.10;100.00
26043;BME280;13818;52.156;5.382;2023-02-26T06:08:46;102036.16;;;1.05;100.00
26043;BME280;13818;52.156;5.382;2023-02-26T06:11:12;102051.00;;;1.03;100.00
26043;BME280;13818;52.156;5.382;2023-02-26T06:13:39;102052.75;;;1.04;100.00
26043;BME280;13818;52.156;5.382;2023-02-26T06:16:06;102047.50;;;1.04;100.00
26043;BME280;13818;52.156;5.382;2023-02-26T06:18:32;102054.56;;;1.08;100.00
26043;BME280;13818;52.156;5.382;2023-02-26T06:20:59;102053.69;;;1.09;100.00
26043;BME280;13818;52.156;5.382;2023-02-26T06:23:27;102055.47;;;1.09;100.00
26043;BME280;13818;52.156;5.382;2023-02-26T06:25:53;102062.44;;;1.07;100.00
26043;BME280;13818;52.156;5.382;2023-02-26T06:28:20;102073.00;;;1.11;100.00
26043;BME280;13818;52.156;5.382;2023-02-26T06:30:48;102074.69;;;1.05;100.00
26043;BME280;13818;52.156;5.382;2023-02-26T06:33:17;102077.16;;;0.94;100.00
26043;BME280;13818;52.156;5.382;2023-02-26T06:35:44;102067.59;;;0.99;100.00
26043;BME280;13818;52.156;5.382;2023-02-26T06:38:12;102085.09;;;1.00;100.00
26043;BME280;13818;52.156;5.382;2023-02-26T06:40:40;102086.84;;;1.00;100.00
26043;BME280;13818;52.156;5.382;2023-02-26T06:43:07;102084.22;;;1.00;100.00
26043;BME280;13818;52.156;5.382;2023-02-26T06:45:34;102086.06;;;1.08;100.00
26043;BME280;13818;52.156;5.382;2023-02-26T06:48:00;102093.84;;;0.99;100.00
26043;BME280;13818;52.156;5.382;2023-02-26T06:50:27;102091.31;;;1.07;100.00
26043;BME280;13818;52.156;5.382;2023-02-26T06:52:54;102101.88;;;1.11;100.00
26043;BME280;13818;52.156;5.382;2023-02-26T06:55:21;102100.19;;;1.17;100.00
26043;BME280;13818;52.156;5.382;2023-02-26T06:57:52;102104.09;;;1.46;100.00
26043;BME280;13818;52.156;5.382;2023-02-26T07:00:20;102116.75;;;1.85;100.00
26043;BME280;13818;52.156;5.382;2023-02-26T07:02:48;102118.81;;;2.12;100.00
26043;BME280;13818;52.156;5.382;2023-02-26T07:05:15;102112.84;;;2.35;100.00
26043;BME280;13818;52.156;5.382;2023-02-26T07:07:42;102126.22;;;2.61;100.00
26043;BME280;13818;52.156;5.382;2023-02-26T07:10:10;102131.00;;;3.30;100.00
26043;BME280;13818;52.156;5.382;2023-02-26T07:12:37;102128.38;;;3.30;100.00
26043;BME280;13818;52.156;5.382;2023-02-26T07:15:06;102138.25;;;3.76;100.00
26043;BME280;13818;52.156;5.382;2023-02-26T07:17:33;102146.16;;;3.81;100.00
26043;BME280;13818;52.156;5.382;2023-02-26T07:19:59;102159.34;;;3.76;100.00
26043;BME280;13818;52.156;5.382;2023-02-26T07:22:30;102157.56;;;3.75;99.66
26043;BME280;13818;52.156;5.382;2023-02-26T07:24:57;102162.06;;;4.04;98.17
26043;BME280;13818;52.156;5.382;2023-02-26T07:27:24;102158.59;;;4.31;97.09
26043;BME280;13818;52.156;5.382;2023-02-26T07:29:51;102157.72;;;4.49;96.19
26043;BME280;13818;52.156;5.382;2023-02-26T07:32:19;102172.69;;;4.63;93.27
26043;BME280;13818;52.156;5.382;2023-02-26T07:34:45;102176.19;;;4.71;92.17
26043;BME280;13818;52.156;5.382;2023-02-26T07:37:12;102167.38;;;4.87;90.31
26043;BME280;13818;52.156;5.382;2023-02-26T07:39:39;102169.97;;;5.14;88.49
26043;BME280;13818;52.156;5.382;2023-02-26T07:42:05;102170.88;;;5.00;86.99
26043;BME280;13818;52.156;5.382;2023-02-26T07:44:33;102184.09;;;4.93;86.00
26043;BME280;13818;52.156;5.382;2023-02-26T07:47:00;102176.03;;;5.53;84.79
26043;BME280;13818;52.156;5.382;2023-02-26T07:49:28;102176.81;;;5.75;83.20
26043;BME280;13818;52.156;5.382;2023-02-26T07:51:56;102186.53;;;5.67;82.01
26043;BME280;13818;52.156;5.382;2023-02-26T07:54:23;102187.59;;;5.04;83.48
26043;BME280;13818;52.156;5.382;2023-02-26T07:56:49;102191.94;;;5.39;83.05
26043;BME280;13818;52.156;5.382;2023-02-26T07:59:16;102196.28;;;5.62;82.16
26043;BME280;13818;52.156;5.382;2023-02-26T08:01:42;102194.56;;;5.44;81.44
26043;BME280;13818;52.156;5.382;2023-02-26T08:04:09;102189.25;;;5.58;80.75
26043;BME280;13818;52.156;5.382;2023-02-26T08:06:37;102198.03;;;5.64;80.02
26043;BME280;13818;52.156;5.382;2023-02-26T08:09:04;102207.72;;;5.67;80.44
26043;BME280;13818;52.156;5.382;2023-02-26T08:11:31;102208.59;;;5.67;80.74
26043;BME280;13818;52.156;5.382;2023-02-26T08:14:00;102215.34;;;6.38;78.38
26043;BME280;13818;52.156;5.382;2023-02-26T08:16:27;102211.22;;;5.72;78.09
26043;BME280;13818;52.156;5.382;2023-02-26T08:18:53;102227.97;;;5.80;79.04
26043;BME280;13818;52.156;5.382;2023-02-26T08:21:20;102223.56;;;5.68;79.49
26043;BME280;13818;52.156;5.382;2023-02-26T08:23:48;102225.22;;;5.96;79.78
26043;BME280;13818;52.156;5.382;2023-02-26T08:26:16;102241.06;;;6.19;77.64
26043;BME280;13818;52.156;5.382;2023-02-26T08:28:43;102248.19;;;5.98;77.35
26043;BME280;13818;52.156;5.382;2023-02-26T08:31:10;102243.94;;;5.52;77.74
26043;BME280;13818;52.156;5.382;2023-02-26T08:33:37;102248.31;;;5.52;77.13
26043;BME280;13818;52.156;5.382;2023-02-26T08:36:05;102267.78;;;5.08;77.85
26043;BME280;13818;52.156;5.382;2023-02-26T08:38:31;102256.31;;;5.12;77.46
26043;BME280;13818;52.156;5.382;2023-02-26T08:41:00;102255.28;;;5.84;74.38
26043;BME280;13818;52.156;5.382;2023-02-26T08:43:26;102260.63;;;5.72;73.55
26043;BME280;13818;52.156;5.382;2023-02-26T08:45:54;102284.47;;;4.66;73.62
26043;BME280;13818;52.156;5.382;2023-02-26T08:48:22;102254.53;;;5.15;73.30
26043;BME280;13818;52.156;5.382;2023-02-26T08:50:49;102258.00;;;5.48;72.63
26043;BME280;13818;52.156;5.382;2023-02-26T08:53:16;102273.91;;;5.45;71.39
26043;BME280;13818;52.156;5.382;2023-02-26T08:55:46;102268.66;;;5.13;70.84
26043;BME280;13818;52.156;5.382;2023-02-26T08:58:14;102273.06;;;4.92;72.57
26043;BME280;13818;52.156;5.382;2023-02-26T09:00:41;102272.16;;;4.70;72.02
26043;BME280;13818;52.156;5.382;2023-02-26T09:03:08;102283.63;;;4.86;71.88
26043;BME280;13818;52.156;5.382;2023-02-26T09:05:35;102304.78;;;4.92;71.67
26043;BME280;13818;52.156;5.382;2023-02-26T09:08:02;102298.59;;;4.98;68.92
26043;BME280;13818;52.156;5.382;2023-02-26T09:10:28;102289.81;;;5.05;68.03
26043;BME280;13818;52.156;5.382;2023-02-26T09:12:58;102307.38;;;4.56;69.13
26043;BME280;13818;52.156;5.382;2023-02-26T09:15:26;102295.81;;;4.30;70.02
26043;BME280;13818;52.156;5.382;2023-02-26T09:17:53;102310.91;;;4.72;70.29
26043;BME280;13818;52.156;5.382;2023-02-26T09:20:19;102299.50;;;4.98;69.95
26043;BME280;13818;52.156;5.382;2023-02-26T09:22:46;102316.19;;;4.79;68.32
26043;BME280;13818;52.156;5.382;2023-02-26T09:25:13;102313.53;;;4.55;68.32
26043;BME280;13818;52.156;5.382;2023-02-26T09:27:39;102321.50;;;4.85;68.69
26043;BME280;13818;52.156;5.382;2023-02-26T09:30:06;102307.38;;;4.83;67.76
26043;BME280;13818;52.156;5.382;2023-02-26T09:32:34;102310.03;;;4.66;68.33
26043;BME280;13818;52.156;5.382;2023-02-26T09:35:02;102307.41;;;4.84;67.70
26043;BME280;13818;52.156;5.382;2023-02-26T09:37:29;102309.16;;;4.98;67.87
26043;BME280;13818;52.156;5.382;2023-02-26T09:39:56;102305.63;;;4.76;67.95
26043;BME280;13818;52.156;5.382;2023-02-26T09:42:33;102319.69;;;4.62;68.52
26043;BME280;13818;52.156;5.382;2023-02-26T09:45:03;102324.94;;;4.50;68.68
26043;BME280;13818;52.156;5.382;2023-02-26T09:47:36;102310.81;;;4.35;68.75
26043;BME280;13818;52.156;5.382;2023-02-26T09:50:10;102336.38;;;4.44;68.24
26043;BME280;13818;52.156;5.382;2023-02-26T09:52:41;102318.72;;;4.29;69.30
26043;BME280;13818;52.156;5.382;2023-02-26T09:55:13;102322.97;;;4.01;70.61
26043;BME280;13818;52.156;5.382;2023-02-26T09:57:43;102315.09;;;4.04;71.00
26043;BME280;13818;52.156;5.382;2023-02-26T10:00:23;102332.78;;;4.25;71.19
26043;BME280;13818;52.156;5.382;2023-02-26T10:03:11;102321.34;;;4.24;71.55
26043;BME280;13818;52.156;5.382;2023-02-26T10:05:45;102329.19;;;4.12;71.21
26043;BME280;13818;52.156;5.382;2023-02-26T10:08:15;102334.53;;;4.24;71.97
26043;BME280;13818;52.156;5.382;2023-02-26T10:10:47;102334.59;;;4.42;71.69
26043;BME280;13818;52.156;5.382;2023-02-26T10:13:32;102337.28;;;4.49;70.87
26043;BME280;13818;52.156;5.382;2023-02-26T10:16:06;102345.22;;;4.63;70.46
26043;BME280;13818;52.156;5.382;2023-02-26T10:18:39;102368.06;;;4.46;69.97
26043;BME280;13818;52.156;5.382;2023-02-26T10:21:13;102345.94;;;4.11;71.50
26043;BME280;13818;52.156;5.382;2023-02-26T10:23:42;102371.47;;;4.23;70.74
26043;BME280;13818;52.156;5.382;2023-02-26T10:26:17;102343.34;;;4.25;70.55
26043;BME280;13818;52.156;5.382;2023-02-26T10:28:52;102345.22;;;4.60;69.49
26043;BME280;13818;52.156;5.382;2023-02-26T10:31:25;102349.56;;;4.49;69.70
26043;BME280;13818;52.156;5.382;2023-02-26T10:34:07;102362.75;;;4.39;68.56
26043;BME280;13818;52.156;5.382;2023-02-26T10:36:41;102353.13;;;4.59;69.57
26043;BME280;13818;52.156;5.382;2023-02-26T10:39:25;102347.06;;;4.84;69.32
26043;BME280;13818;52.156;5.382;2023-02-26T10:41:55;102381.31;;;4.61;69.41
26043;BME280;13818;52.156;5.382;2023-02-26T10:44:31;102365.53;;;4.78;69.96
26043;BME280;13818;52.156;5.382;2023-02-26T10:47:06;102366.44;;;5.13;68.90
26043;BME280;13818;52.156;5.382;2023-02-26T10:49:52;102366.41;;;4.94;69.75
26043;BME280;13818;52.156;5.382;2023-02-26T10:52:23;102369.06;;;5.00;68.92
26043;BME280;13818;52.156;5.382;2023-02-26T10:55:03;102364.66;;;4.85;69.32
26043;BME280;13818;52.156;5.382;2023-02-26T10:57:33;102366.44;;;4.93;69.49
26043;BME280;13818;52.156;5.382;2023-02-26T11:00:01;102369.09;;;5.27;69.84
26043;BME280;13818;52.156;5.382;2023-02-26T11:02:35;102377.94;;;5.36;69.50
26043;BME280;13818;52.156;5.382;2023-02-26T11:05:05;102374.41;;;5.33;66.95
26043;BME280;13818;52.156;5.382;2023-02-26T11:07:35;102370.88;;;5.34;66.44
26043;BME280;13818;52.156;5.382;2023-02-26T11:10:03;102378.78;;;5.15;66.93
26043;BME280;13818;52.156;5.382;2023-02-26T11:12:31;102374.34;;;5.00;66.56
26043;BME280;13818;52.156;5.382;2023-02-26T11:14:59;102364.69;;;5.09;66.10
26043;BME280;13818;52.156;5.382;2023-02-26T11:17:27;102384.97;;;5.10;65.29
26043;BME280;13818;52.156;5.382;2023-02-26T11:19:59;102387.63;;;5.17;65.75
26043;BME280;13818;52.156;5.382;2023-02-26T11:22:32;102378.78;;;4.91;66.44
26043;BME280;13818;52.156;5.382;2023-02-26T11:25:02;102377.88;;;4.96;67.04
26043;BME280;13818;52.156;5.382;2023-02-26T11:27:31;102377.88;;;4.88;67.91
26043;BME280;13818;52.156;5.382;2023-02-26T11:30:03;102382.31;;;4.96;67.62
26043;BME280;13818;52.156;5.382;2023-02-26T11:32:32;102387.59;;;4.97;66.32
26043;BME280;13818;52.156;5.382;2023-02-26T11:34:59;102387.59;;;4.96;66.15
26043;BME280;13818;52.156;5.382;2023-02-26T11:37:28;102401.63;;;4.75;66.30
26043;BME280;13818;52.156;5.382;2023-02-26T11:39:58;102404.31;;;4.93;66.67
26043;BME280;13818;52.156;5.382;2023-02-26T11:42:25;102380.53;;;5.02;64.56
26043;BME280;13818;52.156;5.382;2023-02-26T11:44:53;102385.84;;;5.09;64.81
26043;BME280;13818;52.156;5.382;2023-02-26T11:47:23;102397.28;;;5.09;65.53
26043;BME280;13818;52.156;5.382;2023-02-26T11:49:53;102394.66;;;5.15;65.34
26043;BME280;13818;52.156;5.382;2023-02-26T11:52:27;102386.72;;;4.98;65.83
26043;BME280;13818;52.156;5.382;2023-02-26T11:54:58;102411.38;;;5.00;66.21
26043;BME280;13818;52.156;5.382;2023-02-26T11:57:28;102393.75;;;5.02;65.68
26043;BME280;13818;52.156;5.382;2023-02-26T11:59:57;102397.31;;;5.18;65.77
26043;BME280;13818;52.156;5.382;2023-02-26T12:02:26;102397.31;;;5.25;66.64
26043;BME280;13818;52.156;5.382;2023-02-26T12:04:58;102400.81;;;5.03;67.30
26043;BME280;13818;52.156;5.382;2023-02-26T12:07:26;102394.63;;;5.03;66.29
26043;BME280;13818;52.156;5.382;2023-02-26T12:09:53;102385.81;;;5.05;65.86
26043;BME280;13818;52.156;5.382;2023-02-26T12:12:42;102390.28;;;5.16;66.21
26043;BME280;13818;52.156;5.382;2023-02-26T12:15:25;102388.50;;;5.13;66.76
26043;BME280;13818;52.156;5.382;2023-02-26T12:18:20;102384.06;;;4.92;68.25
26043;BME280;13818;52.156;5.382;2023-02-26T12:20:58;102371.75;;;5.16;69.50
26043;BME280;13818;52.156;5.382;2023-02-26T12:23:52;102371.69;;;4.79;69.76
26043;BME280;13818;52.156;5.382;2023-02-26T12:26:25;102375.25;;;5.02;70.54
26043;BME280;13818;52.156;5.382;2023-02-26T12:29:07;102380.59;;;5.33;70.73
26043;BME280;13818;52.156;5.382;2023-02-26T12:31:52;102367.34;;;5.50;69.94
26043;BME280;13818;52.156;5.382;2023-02-26T12:34:39;102377.91;;;5.24;69.11
26043;BME280;13818;52.156;5.382;2023-02-26T12:37:25;102380.59;;;5.49;68.30
26043;BME280;13818;52.156;5.382;2023-02-26T12:40:04;102383.25;;;5.40;66.79
26043;BME280;13818;52.156;5.382;2023-02-26T12:42:39;102381.47;;;5.48;66.13
26043;BME280;13818;52.156;5.382;2023-02-26T12:45:39;102372.63;;;5.58;65.33
26043;BME280;13818;52.156;5.382;2023-02-26T12:48:36;102363.81;;;5.65;65.90
26043;BME280;13818;52.156;5.382;2023-02-26T12:51:17;102366.44;;;5.67;65.79
26043;BME280;13818;52.156;5.382;2023-02-26T12:54:09;102377.06;;;5.30;65.42
26043;BME280;13818;52.156;5.382;2023-02-26T13:00:03;102367.34;;;5.63;65.66
26043;BME280;13818;52.156;5.382;2023-02-26T13:05:51;102376.16;;;5.69;65.70
26043;BME280;13818;52.156;5.382;2023-02-26T13:08:24;102377.88;;;5.84;65.71
26043;BME280;13818;52.156;5.382;2023-02-26T13:11:06;102374.38;;;5.85;64.91
26043;BME280;13818;52.156;5.382;2023-02-26T13:13:51;102367.28;;;5.95;65.12
26043;BME280;13818;52.156;5.382;2023-02-26T13:16:37;102392.88;;;5.85;63.61
26043;BME280;13818;52.156;5.382;2023-02-26T13:19:14;102389.38;;;5.73;63.24
26043;BME280;13818;52.156;5.382;2023-02-26T13:21:50;102378.78;;;5.71;64.29